Time;durP1;ratioP1;P1;durP2;ratioP2;P2;SDS_P1;SDS_P2;PMS_P1;PMS_P2;Temp;Humidity;BMP_temperature;BMP_pressure;BME280_temperature;BME280_humidity;BME280_pressure;Samples;Min_cycle;Max_cycle;Signal;HPM_P1;HPM_P2
2022/09/26 00:01:24;;;;;;;8.23;3.25;;;10.00;99.90;;;;;;5107628;27;20058;-82
2022/09/26 00:04:02;;;;;;;8.65;3.42;;;10.10;99.90;;;;;;5099315;27;20123;-82
2022/09/26 00:06:28;;;;;;;5.60;3.35;;;10.00;99.90;;;;;;5132795;27;20106;-82
2022/09/26 00:08:55;;;;;;;6.25;3.25;;;10.00;99.90;;;;;;5129397;27;20039;-82
2022/09/26 00:11:24;;;;;;;5.50;3.58;;;9.90;99.90;;;;;;5098523;27;20054;-82
2022/09/26 00:13:53;;;;;;;7.45;3.50;;;9.90;99.90;;;;;;5131659;27;20050;-82
2022/09/26 00:16:19;;;;;;;7.32;3.72;;;9.90;99.90;;;;;;5115767;27;20046;-82
2022/09/26 00:18:53;;;;;;;6.60;3.67;;;9.90;99.90;;;;;;5124165;27;20050;-82
2022/09/26 00:21:20;;;;;;;11.93;4.20;;;9.90;99.90;;;;;;5131260;27;20050;-82
2022/09/26 00:23:46;;;;;;;7.90;3.60;;;9.90;99.90;;;;;;5124066;27;20053;-81
2022/09/26 00:26:13;;;;;;;5.20;3.45;;;9.90;99.90;;;;;;5108899;27;20129;-82
2022/09/26 00:28:40;;;;;;;7.38;4.00;;;9.90;99.90;;;;;;5112286;27;20043;-82
2022/09/26 00:31:15;;;;;;;6.05;3.65;;;9.80;99.90;;;;;;5110117;27;20057;-82
2022/09/26 00:33:41;;;;;;;4.97;3.40;;;9.90;99.90;;;;;;5128382;27;20050;-82
2022/09/26 00:36:08;;;;;;;7.32;3.15;;;9.90;99.90;;;;;;5126587;27;20054;-82
2022/09/26 00:38:34;;;;;;;5.72;3.22;;;9.90;99.90;;;;;;5106613;27;20129;-82
2022/09/26 00:41:00;;;;;;;8.18;3.95;;;9.90;99.90;;;;;;5111364;27;20523;-82
2022/09/26 00:43:30;;;;;;;8.07;3.75;;;9.90;99.90;;;;;;5128116;27;20069;-82
2022/09/26 00:46:16;;;;;;;6.88;3.05;;;9.80;99.90;;;;;;5103410;27;20054;-82
2022/09/26 00:48:46;;;;;;;8.13;3.85;;;9.90;99.90;;;;;;5127264;27;20459;-82
2022/09/26 00:51:12;;;;;;;9.90;4.30;;;9.90;99.90;;;;;;5128511;27;20066;-82
2022/09/26 00:53:42;;;;;;;6.95;3.72;;;9.80;99.90;;;;;;5109761;27;20050;-82
2022/09/26 00:56:14;;;;;;;8.90;3.70;;;9.80;99.90;;;;;;5131633;27;20262;-82
2022/09/26 00:59:06;;;;;;;7.13;3.50;;;9.80;99.90;;;;;;5113118;27;20095;-82
2022/09/26 01:01:32;;;;;;;9.05;3.50;;;9.80;99.90;;;;;;5110503;27;20421;-82
2022/09/26 01:03:58;;;;;;;5.43;3.22;;;9.80;99.90;;;;;;5125335;27;20054;-82
2022/09/26 01:06:24;;;;;;;6.28;3.15;;;9.90;99.90;;;;;;5116036;27;20042;-82
2022/09/26 01:08:58;;;;;;;5.75;3.40;;;9.80;99.90;;;;;;5115627;27;20051;-81
2022/09/26 01:11:24;;;;;;;6.47;2.88;;;9.80;99.90;;;;;;5109980;27;20054;-82
2022/09/26 01:13:52;;;;;;;6.55;3.00;;;9.80;99.90;;;;;;5129046;27;20054;-82
2022/09/26 01:16:18;;;;;;;6.03;3.33;;;9.70;99.90;;;;;;5119435;27;20073;-82
2022/09/26 01:18:45;;;;;;;7.35;2.75;;;9.70;99.90;;;;;;5098710;27;20491;-81
2022/09/26 01:21:53;;;;;;;8.02;2.55;;;9.70;99.90;;;;;;5130498;27;20129;-82
2022/09/26 01:24:52;;;;;;;11.35;3.00;;;9.70;99.90;;;;;;5129924;27;20502;-82
2022/09/26 01:27:48;;;;;;;3.92;2.65;;;9.70;99.90;;;;;;5133413;27;20042;-82
2022/09/26 01:30:20;;;;;;;9.48;3.55;;;9.70;99.90;;;;;;5132112;27;20066;-82
2022/09/26 01:33:06;;;;;;;11.50;2.95;;;9.70;99.90;;;;;;5123973;27;20446;-81
2022/09/26 01:35:50;;;;;;;4.60;2.65;;;9.80;99.90;;;;;;5130570;27;20054;-81
2022/09/26 01:38:46;;;;;;;3.75;2.10;;;10.00;99.90;;;;;;5103505;27;20050;-82
2022/09/26 01:41:24;;;;;;;4.78;2.25;;;9.90;99.90;;;;;;5126964;27;20880;-82
2022/09/26 01:44:18;;;;;;;9.57;2.63;;;9.90;99.90;;;;;;5126725;27;20043;-82
2022/09/26 01:46:47;;;;;;;8.63;2.92;;;10.00;99.90;;;;;;5105954;27;20055;-81
2022/09/26 01:49:23;;;;;;;4.57;2.40;;;10.00;99.90;;;;;;5097815;27;20091;-82
2022/09/26 01:52:04;;;;;;;5.10;2.30;;;10.10;99.90;;;;;;5124928;27;20043;-82
2022/09/26 01:54:57;;;;;;;10.80;3.00;;;10.10;99.90;;;;;;5128914;27;20159;-82
2022/09/26 01:57:28;;;;;;;8.88;2.42;;;10.20;99.90;;;;;;5119292;27;20051;-82
2022/09/26 01:59:59;;;;;;;8.32;2.50;;;10.10;99.90;;;;;;5116705;27;20103;-82
2022/09/26 02:02:31;;;;;;;8.15;2.63;;;10.10;99.90;;;;;;5098577;27;20039;-82
2022/09/26 02:05:05;;;;;;;6.57;2.50;;;10.10;99.90;;;;;;5109391;27;20130;-81
2022/09/26 02:07:45;;;;;;;5.88;2.80;;;10.10;99.90;;;;;;5099264;27;20496;-82
2022/09/26 02:10:17;;;;;;;7.65;2.50;;;10.10;99.90;;;;;;5108670;27;20054;-82
2022/09/26 02:12:47;;;;;;;8.18;2.60;;;10.10;99.90;;;;;;5115823;27;20054;-81
2022/09/26 02:15:17;;;;;;;4.90;2.47;;;10.10;99.90;;;;;;5131962;27;20502;-82
2022/09/26 02:17:48;;;;;;;6.55;2.67;;;10.10;99.90;;;;;;5122256;27;20043;-81
2022/09/26 02:20:15;;;;;;;9.63;3.83;;;10.10;99.90;;;;;;5132096;27;20050;-82
2022/09/26 02:22:41;;;;;;;7.78;2.75;;;10.20;99.90;;;;;;5120907;27;20043;-82
2022/09/26 02:25:08;;;;;;;8.18;3.30;;;10.20;99.90;;;;;;5121105;27;20404;-82
2022/09/26 02:27:34;;;;;;;6.90;3.15;;;10.20;99.90;;;;;;5129112;27;20049;-83
2022/09/26 02:30:00;;;;;;;6.05;3.47;;;10.20;99.90;;;;;;5121650;27;20034;-82
2022/09/26 02:32:31;;;;;;;9.25;3.55;;;10.20;99.90;;;;;;5099297;27;20050;-82
2022/09/26 02:34:58;;;;;;;12.10;3.78;;;10.20;99.90;;;;;;5115923;27;20038;-82
2022/09/26 02:37:24;;;;;;;9.65;4.10;;;10.10;99.90;;;;;;5133229;27;20045;-82
2022/09/26 02:39:52;;;;;;;9.02;3.72;;;10.20;99.90;;;;;;5134256;27;20046;-82
2022/09/26 02:42:35;;;;;;;6.43;3.83;;;10.20;99.90;;;;;;5132886;27;20476;-82
2022/09/26 02:45:20;;;;;;;8.98;4.07;;;10.20;99.90;;;;;;5125447;27;20503;-82
2022/09/26 02:48:18;;;;;;;9.70;3.80;;;10.20;99.90;;;;;;5103747;27;20587;-82
2022/09/26 02:50:52;;;;;;;7.47;4.40;;;10.20;99.90;;;;;;5121380;27;20043;-83
2022/09/26 02:53:55;;;;;;;10.85;4.50;;;10.20;99.90;;;;;;5132173;27;20039;-82
2022/09/26 02:56:39;;;;;;;9.13;4.35;;;10.20;99.90;;;;;;5108151;27;20050;-83
2022/09/26 02:59:20;;;;;;;11.60;4.75;;;10.20;99.90;;;;;;5109902;27;20173;-83
2022/09/26 03:02:05;;;;;;;9.77;4.40;;;10.10;99.90;;;;;;5115678;27;20054;-83
2022/09/26 03:05:02;;;;;;;11.68;4.38;;;10.20;99.90;;;;;;5127365;27;20558;-83
2022/09/26 03:07:51;;;;;;;12.88;4.95;;;10.20;99.90;;;;;;5087720;27;20127;-83
2022/09/26 03:10:18;;;;;;;10.48;5.07;;;10.20;99.90;;;;;;5114173;27;20081;-82
2022/09/26 03:12:44;;;;;;;16.70;6.18;;;10.20;99.90;;;;;;5111832;27;20432;-82
2022/09/26 03:15:12;;;;;;;9.85;5.78;;;10.10;99.90;;;;;;5125724;27;20054;-83
2022/09/26 03:17:42;;;;;;;11.95;5.85;;;10.20;99.90;;;;;;5131360;27;20452;-83
2022/09/26 03:20:14;;;;;;;8.65;5.93;;;10.20;99.90;;;;;;5132835;27;20406;-82
2022/09/26 03:22:44;;;;;;;15.20;7.28;;;10.20;99.90;;;;;;5113222;27;20054;-83
2022/09/26 03:25:15;;;;;;;9.77;6.78;;;10.20;99.90;;;;;;5129971;27;20462;-82
2022/09/26 03:27:44;;;;;;;16.42;7.30;;;10.20;99.90;;;;;;5129747;27;20498;-83
2022/09/26 03:30:12;;;;;;;12.35;7.55;;;10.20;99.90;;;;;;5115865;27;20065;-82
2022/09/26 03:32:39;;;;;;;11.40;7.30;;;10.20;99.90;;;;;;5128815;27;20091;-83
2022/09/26 03:35:06;;;;;;;14.50;8.02;;;10.20;99.90;;;;;;5133441;27;20085;-83
2022/09/26 03:37:33;;;;;;;18.60;8.35;;;10.20;99.90;;;;;;5096598;27;20054;-83
2022/09/26 03:40:05;;;;;;;19.75;8.43;;;10.20;99.90;;;;;;5124708;27;20074;-83
2022/09/26 03:42:32;;;;;;;14.85;8.30;;;10.20;99.90;;;;;;5114182;27;20042;-82
2022/09/26 03:44:59;;;;;;;15.75;7.82;;;10.20;99.90;;;;;;5113874;27;20043;-82
2022/09/26 03:47:25;;;;;;;15.68;7.57;;;10.20;99.90;;;;;;5108369;27;20055;-82
2022/09/26 03:49:55;;;;;;;13.93;8.13;;;10.20;99.90;;;;;;5085862;27;20062;-82
2022/09/26 03:52:21;;;;;;;14.63;8.13;;;10.20;99.90;;;;;;5132012;27;20114;-83
2022/09/26 03:54:46;;;;;;;17.63;8.60;;;10.20;99.90;;;;;;5113575;27;20050;-83
2022/09/26 03:57:13;;;;;;;14.32;8.10;;;10.20;99.90;;;;;;5130527;27;20073;-82
2022/09/26 03:59:39;;;;;;;13.55;8.02;;;10.20;99.90;;;;;;5097326;27;20047;-83
2022/09/26 04:02:05;;;;;;;13.82;7.97;;;10.20;99.90;;;;;;5108028;27;20050;-82
2022/09/26 04:04:32;;;;;;;16.52;8.10;;;10.20;99.90;;;;;;5122038;27;20577;-82
2022/09/26 04:06:58;;;;;;;15.95;8.65;;;10.20;99.90;;;;;;5086685;27;20043;-82
2022/09/26 04:09:24;;;;;;;14.77;9.10;;;10.20;99.90;;;;;;5132240;27;20050;-83
2022/09/26 04:11:50;;;;;;;12.55;8.45;;;10.20;99.90;;;;;;5101392;27;20039;-82
2022/09/26 04:14:17;;;;;;;15.65;8.40;;;10.20;99.90;;;;;;5123014;27;20395;-81
2022/09/26 04:16:43;;;;;;;18.23;9.48;;;10.20;99.90;;;;;;5114532;27;20039;-82
2022/09/26 04:19:10;;;;;;;13.82;8.73;;;10.20;99.90;;;;;;5132697;27;20133;-81
2022/09/26 04:21:39;;;;;;;18.05;9.77;;;10.20;99.90;;;;;;5120594;27;20284;-81
2022/09/26 04:24:06;;;;;;;13.02;9.93;;;10.20;99.90;;;;;;5114508;27;20058;-81
2022/09/26 04:26:32;;;;;;;13.13;9.38;;;10.20;99.90;;;;;;5132100;27;20090;-81
2022/09/26 04:28:58;;;;;;;15.55;10.10;;;10.20;99.90;;;;;;5115246;27;20073;-81
2022/09/26 04:31:26;;;;;;;16.17;9.27;;;10.10;99.90;;;;;;5127580;27;20042;-80
2022/09/26 04:33:54;;;;;;;15.90;10.57;;;10.10;99.90;;;;;;5098101;27;20079;-81
2022/09/26 04:36:20;;;;;;;19.15;10.32;;;10.10;99.90;;;;;;5106497;27;20322;-82
2022/09/26 04:38:46;;;;;;;15.80;10.50;;;10.00;99.90;;;;;;5119201;27;20055;-82
2022/09/26 04:41:14;;;;;;;15.77;10.02;;;10.00;99.90;;;;;;5126048;27;20047;-80
2022/09/26 04:43:40;;;;;;;16.23;10.27;;;10.00;99.90;;;;;;5129158;27;20046;-80
2022/09/26 04:46:12;;;;;;;13.85;10.35;;;10.00;99.90;;;;;;5091657;27;20453;-80
2022/09/26 04:48:38;;;;;;;17.75;10.52;;;10.00;99.90;;;;;;5114876;27;20360;-81
2022/09/26 04:51:06;;;;;;;15.80;10.30;;;10.00;99.90;;;;;;5117995;27;20038;-82
2022/09/26 04:53:32;;;;;;;20.67;11.07;;;10.00;99.90;;;;;;5113554;27;20061;-81
2022/09/26 04:56:00;;;;;;;17.38;10.60;;;10.00;99.90;;;;;;5120301;27;20075;-81
2022/09/26 04:58:27;;;;;;;22.95;11.85;;;10.10;99.90;;;;;;5088362;27;20051;-81
2022/09/26 05:00:53;;;;;;;17.27;11.48;;;10.10;99.90;;;;;;5113767;27;20051;-80
2022/09/26 05:03:19;;;;;;;18.63;11.80;;;10.10;99.90;;;;;;5110707;27;20356;-81
2022/09/26 05:05:49;;;;;;;17.30;11.20;;;10.20;99.90;;;;;;5111123;27;20050;-80
2022/09/26 05:08:15;;;;;;;18.00;11.10;;;10.10;99.90;;;;;;5112195;27;20055;-80
2022/09/26 05:10:41;;;;;;;17.33;11.93;;;10.10;99.90;;;;;;5114091;27;20039;-80
2022/09/26 05:13:07;;;;;;;17.52;11.40;;;10.10;99.90;;;;;;5094976;27;20118;-81
2022/09/26 05:15:38;;;;;;;19.85;12.57;;;10.20;99.90;;;;;;5129122;27;20452;-81
2022/09/26 05:18:10;;;;;;;21.50;12.60;;;10.10;99.90;;;;;;5097453;27;20043;-82
2022/09/26 05:20:37;;;;;;;20.10;12.02;;;10.10;99.90;;;;;;5120218;27;20130;-80
2022/09/26 05:23:06;;;;;;;18.75;12.80;;;10.10;99.90;;;;;;5117694;27;20082;-79
2022/09/26 05:28:26;;;;;;;19.52;11.82;;;10.10;99.90;;;;;;5123509;27;20054;-77
2022/09/26 05:30:52;;;;;;;19.63;12.02;;;10.10;99.90;;;;;;5131865;27;20538;-78
2022/09/26 05:33:18;;;;;;;17.17;11.95;;;10.10;99.90;;;;;;5115737;27;20043;-77
2022/09/26 05:35:48;;;;;;;17.60;12.43;;;10.00;99.90;;;;;;5109584;27;20118;-77
2022/09/26 05:38:14;;;;;;;18.88;12.25;;;10.00;99.90;;;;;;5097388;27;20523;-77
2022/09/26 05:40:58;;;;;;;19.75;12.82;;;10.00;99.90;;;;;;5125082;27;20038;-77
2022/09/26 05:43:35;;;;;;;19.38;12.63;;;10.00;99.90;;;;;;5110962;27;20045;-80
2022/09/26 05:46:06;;;;;;;26.30;13.23;;;10.00;99.90;;;;;;5134531;27;20095;-80
2022/09/26 05:48:34;;;;;;;18.15;12.63;;;10.10;99.90;;;;;;5131676;27;20125;-80
2022/09/26 05:51:14;;;;;;;20.08;12.38;;;10.00;99.90;;;;;;5111626;27;20050;-80
2022/09/26 05:53:41;;;;;;;22.42;13.10;;;10.10;99.90;;;;;;5129957;27;20055;-80
2022/09/26 05:56:08;;;;;;;17.88;12.25;;;10.00;99.90;;;;;;5133139;27;20125;-81
2022/09/26 05:58:36;;;;;;;20.15;12.65;;;10.00;99.90;;;;;;5122365;27;20079;-80
2022/09/26 06:01:11;;;;;;;16.05;12.25;;;10.00;99.90;;;;;;5125044;27;20046;-81
2022/09/26 06:03:40;;;;;;;18.20;12.15;;;10.00;99.90;;;;;;5121242;27;20040;-81
2022/09/26 06:06:08;;;;;;;19.20;11.77;;;10.00;99.90;;;;;;5118206;27;20073;-80
2022/09/26 06:08:35;;;;;;;18.35;11.68;;;10.00;99.90;;;;;;5134153;27;20448;-80
2022/09/26 06:11:11;;;;;;;18.30;11.65;;;10.00;99.90;;;;;;5118236;27;20455;-80
2022/09/26 06:13:37;;;;;;;16.10;11.05;;;10.00;99.90;;;;;;5100895;27;20051;-81
2022/09/26 06:16:06;;;;;;;14.45;10.18;;;9.90;99.90;;;;;;5108911;27;20424;-81
2022/09/26 06:18:36;;;;;;;16.25;9.63;;;9.90;99.90;;;;;;5117441;27;20103;-81
2022/09/26 06:21:06;;;;;;;15.70;10.00;;;9.90;99.90;;;;;;5132854;27;20046;-81
2022/09/26 06:23:35;;;;;;;15.60;10.18;;;9.90;99.90;;;;;;5102940;27;20051;-81
2022/09/26 06:26:03;;;;;;;15.32;10.32;;;9.90;99.90;;;;;;5127486;27;20035;-81
2022/09/26 06:28:30;;;;;;;19.08;10.88;;;9.90;99.90;;;;;;5097243;27;20051;-81
2022/09/26 06:30:56;;;;;;;18.77;10.95;;;9.90;99.90;;;;;;5096756;27;20039;-80
2022/09/26 06:33:22;;;;;;;15.40;9.95;;;9.90;99.90;;;;;;5114606;27;20043;-80
2022/09/26 06:36:02;;;;;;;15.70;9.63;;;9.90;99.90;;;;;;5131305;27;20772;-81
2022/09/26 06:38:28;;;;;;;14.23;9.02;;;9.90;99.90;;;;;;5134842;27;20093;-81
2022/09/26 06:40:54;;;;;;;16.77;9.88;;;9.90;99.90;;;;;;5133823;27;20074;-81
2022/09/26 06:43:20;;;;;;;15.05;9.38;;;9.90;99.90;;;;;;5133943;27;20129;-81
2022/09/26 06:45:47;;;;;;;14.85;9.40;;;9.90;99.90;;;;;;5079354;27;20121;-81
2022/09/26 06:48:14;;;;;;;13.50;8.77;;;9.90;99.90;;;;;;5097491;27;20070;-82
2022/09/26 06:50:40;;;;;;;17.80;8.27;;;9.90;99.90;;;;;;5104083;27;20039;-82
2022/09/26 06:53:06;;;;;;;13.13;8.30;;;9.90;99.90;;;;;;5116703;27;20103;-82
2022/09/26 06:55:32;;;;;;;13.43;8.65;;;9.90;99.90;;;;;;5100929;27;20545;-81
2022/09/26 06:57:58;;;;;;;10.68;8.25;;;9.80;99.90;;;;;;5103490;27;20057;-81
2022/09/26 07:00:24;;;;;;;14.20;8.10;;;9.80;99.90;;;;;;5116436;27;20091;-82
2022/09/26 07:02:52;;;;;;;14.50;7.28;;;9.80;99.90;;;;;;5122134;27;20043;-82
2022/09/26 07:05:19;;;;;;;11.18;7.38;;;9.90;99.90;;;;;;5111183;27;20047;-82
2022/09/26 07:07:45;;;;;;;12.15;7.43;;;9.80;99.90;;;;;;5116570;27;20081;-81
2022/09/26 07:10:12;;;;;;;11.23;7.85;;;9.80;99.90;;;;;;5103323;27;20051;-81
2022/09/26 07:12:46;;;;;;;12.25;7.00;;;9.80;99.90;;;;;;5134096;27;20055;-81
2022/09/26 07:15:16;;;;;;;12.05;6.85;;;10.00;99.90;;;;;;5113923;27;20059;-81
2022/09/26 07:17:44;;;;;;;15.60;8.00;;;9.80;99.90;;;;;;5110774;27;20121;-81
2022/09/26 07:20:11;;;;;;;9.00;7.15;;;10.00;99.90;;;;;;5117032;27;20053;-80
2022/09/26 07:22:37;;;;;;;11.25;6.93;;;9.80;99.90;;;;;;5133461;27;20494;-82
2022/09/26 07:25:03;;;;;;;16.70;8.40;;;9.80;99.90;;;;;;5107605;27;20122;-82
2022/09/26 07:27:29;;;;;;;12.18;7.47;;;9.80;99.90;;;;;;5096089;27;20051;-81
2022/09/26 07:29:55;;;;;;;10.13;7.97;;;9.80;99.90;;;;;;5104539;27;20172;-81
2022/09/26 07:32:21;;;;;;;12.05;7.05;;;9.80;99.90;;;;;;5119891;27;20499;-81
2022/09/26 07:34:47;;;;;;;12.27;6.85;;;9.90;99.90;;;;;;5101199;27;20042;-81
2022/09/26 07:37:14;;;;;;;14.38;7.55;;;9.90;99.90;;;;;;5115577;27;20049;-81
2022/09/26 07:39:40;;;;;;;13.05;7.78;;;9.90;99.90;;;;;;5133162;27;20065;-82
2022/09/26 07:42:06;;;;;;;17.45;7.72;;;10.00;99.90;;;;;;5101659;27;20142;-82
2022/09/26 07:44:31;;;;;;;11.45;6.97;;;10.00;99.90;;;;;;5112824;27;20108;-82
2022/09/26 07:52:29;;;;;;;9.73;6.35;;;10.00;99.90;;;;;;5121324;27;20141;-81
2022/09/26 07:54:55;;;;;;;13.88;7.50;;;10.00;99.90;;;;;;5118390;27;20104;-82
2022/09/26 07:57:21;;;;;;;13.40;7.07;;;10.00;99.90;;;;;;5112637;27;20419;-82
2022/09/26 07:59:49;;;;;;;11.55;7.32;;;10.00;99.90;;;;;;5087601;27;20051;-81
2022/09/26 08:02:30;;;;;;;13.25;6.85;;;10.00;99.90;;;;;;5095709;27;20510;-81
2022/09/26 08:04:56;;;;;;;15.40;7.07;;;10.00;99.90;;;;;;5113735;27;20487;-81
2022/09/26 08:07:23;;;;;;;10.50;6.85;;;10.00;99.90;;;;;;5133081;27;20046;-81
2022/09/26 08:09:52;;;;;;;12.10;7.78;;;10.10;99.90;;;;;;5098393;27;20495;-81
2022/09/26 08:12:18;;;;;;;11.30;6.90;;;10.10;99.90;;;;;;5094597;27;20104;-81
2022/09/26 08:14:48;;;;;;;10.25;6.38;;;10.10;99.90;;;;;;5111220;27;20038;-82
2022/09/26 08:17:16;;;;;;;13.95;7.20;;;10.10;99.90;;;;;;5132569;27;20046;-80
2022/09/26 08:19:42;;;;;;;11.25;6.85;;;10.20;99.90;;;;;;5132010;27;20054;-81
2022/09/26 08:22:08;;;;;;;14.88;6.88;;;10.20;99.90;;;;;;5115143;27;20086;-80
2022/09/26 08:24:34;;;;;;;12.48;6.53;;;10.30;99.90;;;;;;5115100;27;20042;-80
2022/09/26 08:27:00;;;;;;;9.68;6.15;;;10.30;99.90;;;;;;5115002;27;20047;-80
2022/09/26 08:29:26;;;;;;;10.73;6.38;;;10.40;99.90;;;;;;5115125;27;20074;-81
2022/09/26 08:31:53;;;;;;;8.93;6.10;;;10.40;99.90;;;;;;5132190;27;20398;-81
2022/09/26 08:34:20;;;;;;;11.50;6.53;;;10.40;99.90;;;;;;5114891;27;20054;-81
2022/09/26 08:36:52;;;;;;;12.20;6.30;;;10.40;99.90;;;;;;5095247;28;20100;-80
2022/09/26 08:39:19;;;;;;;11.18;6.20;;;10.60;99.90;;;;;;5114395;27;20055;-80
2022/09/26 08:42:16;;;;;;;8.80;5.65;;;10.50;99.90;;;;;;5131629;27;20406;-81
2022/09/26 08:46:13;;;;;;;9.80;5.43;;;10.50;99.90;;;;;;5113969;27;20058;-81
2022/09/26 08:48:01;;;;;;;12.77;7.03;;;10.50;99.90;;;;;;5128165;28;20047;-82
2022/09/26 08:50:58;;;;;;;10.15;5.65;;;10.50;99.90;;;;;;5126544;28;20046;-81
2022/09/26 08:53:32;;;;;;;10.80;6.40;;;10.50;99.90;;;;;;5111980;27;20050;-81
2022/09/26 08:56:00;;;;;;;10.93;6.50;;;10.50;99.90;;;;;;5115015;27;20137;-81
2022/09/26 08:58:36;;;;;;;11.10;5.38;;;10.60;99.90;;;;;;5121881;27;20055;-81
2022/09/26 09:01:11;;;;;;;8.38;5.50;;;10.60;99.90;;;;;;5121010;27;20047;-81
2022/09/26 09:03:51;;;;;;;12.20;5.78;;;10.80;99.90;;;;;;5132107;27;20046;-81
2022/09/26 09:06:18;;;;;;;11.38;5.68;;;10.80;99.90;;;;;;5111296;27;20511;-82
2022/09/26 09:08:49;;;;;;;8.52;6.22;;;10.80;99.90;;;;;;5135435;27;20121;-81
2022/09/26 09:11:26;;;;;;;6.63;4.93;;;10.80;99.90;;;;;;5134099;27;20047;-81
2022/09/26 09:14:21;;;;;;;7.95;5.47;;;10.90;99.90;;;;;;5124859;27;20070;-82
2022/09/26 09:16:56;;;;;;;8.02;5.47;;;10.90;99.90;;;;;;5094943;27;20393;-81
2022/09/26 09:19:38;;;;;;;10.10;5.80;;;11.00;99.90;;;;;;5113204;27;20081;-81
2022/09/26 09:22:32;;;;;;;9.93;5.18;;;11.00;99.90;;;;;;5132221;27;20434;-82
2022/09/26 09:25:20;;;;;;;12.18;5.97;;;11.10;99.90;;;;;;5123033;27;20039;-81
2022/09/26 09:28:04;;;;;;;12.30;5.95;;;11.00;99.90;;;;;;5131509;27;20486;-81
2022/09/26 09:30:39;;;;;;;8.68;5.30;;;11.10;99.90;;;;;;5112320;27;20376;-82
2022/09/26 09:33:32;;;;;;;9.05;5.60;;;11.10;99.90;;;;;;5117984;27;20042;-80
2022/09/26 09:36:00;;;;;;;10.48;5.18;;;11.10;99.90;;;;;;5134143;27;20102;-82
2022/09/26 09:38:29;;;;;;;7.20;5.03;;;11.10;99.90;;;;;;5135687;27;20452;-81
2022/09/26 09:41:17;;;;;;;9.48;5.68;;;11.10;99.90;;;;;;5118141;27;20045;-82
2022/09/26 09:43:53;;;;;;;10.13;5.00;;;11.10;99.90;;;;;;5121413;27;20493;-82
2022/09/26 09:46:26;;;;;;;;;;;11.10;99.90;;;;;;5123845;27;20103;-81
2022/09/26 09:48:57;;;;;;;9.82;5.05;;;11.10;99.90;;;;;;5134623;27;19927;-81
2022/09/26 09:51:47;;;;;;;12.75;5.80;;;11.10;99.90;;;;;;5117413;27;20114;-81
2022/09/26 09:54:21;;;;;;;10.20;5.22;;;11.10;99.90;;;;;;5107787;27;20043;-81
2022/09/26 09:57:21;;;;;;;8.52;5.43;;;11.20;99.90;;;;;;5104457;27;20444;-81
2022/09/26 10:00:01;;;;;;;8.35;5.82;;;11.10;99.90;;;;;;5110852;27;20084;-81
2022/09/26 10:02:45;;;;;;;12.35;5.95;;;11.10;99.90;;;;;;5105760;27;20523;-82
2022/09/26 10:05:45;;;;;;;10.07;6.60;;;11.10;99.90;;;;;;5120653;27;20047;-82
2022/09/26 10:08:28;;;;;;;12.88;6.50;;;11.10;99.90;;;;;;5072100;27;20100;-81
2022/09/26 10:11:15;;;;;;;12.02;6.80;;;11.00;99.90;;;;;;5118110;27;20089;-81
2022/09/26 10:13:44;;;;;;;12.15;6.65;;;11.10;99.90;;;;;;5132769;27;20382;-82
2022/09/26 10:16:13;;;;;;;11.57;7.15;;;11.10;99.90;;;;;;5106522;27;20050;-81
2022/09/26 10:19:07;;;;;;;11.35;6.25;;;11.30;99.90;;;;;;5112494;28;20074;-81
2022/09/26 10:21:38;;;;;;;12.88;6.75;;;11.30;99.90;;;;;;5127951;27;20051;-81
2022/09/26 10:24:06;;;;;;;11.02;6.15;;;11.40;99.90;;;;;;5113674;27;20039;-82
2022/09/26 10:26:33;;;;;;;13.52;6.30;;;11.40;99.90;;;;;;5123607;27;20083;-81
2022/09/26 10:29:07;;;;;;;11.02;6.45;;;11.40;99.90;;;;;;5108763;27;20054;-81
2022/09/26 10:31:37;;;;;;;10.02;6.18;;;11.40;99.90;;;;;;5103526;27;20047;-81
2022/09/26 10:34:20;;;;;;;9.20;5.97;;;11.50;99.90;;;;;;5130205;27;20690;-82
2022/09/26 10:36:46;;;;;;;14.15;6.95;;;11.50;99.90;;;;;;5129609;27;20047;-81
2022/09/26 10:42:00;;;;;;;13.18;6.10;;;11.50;99.90;;;;;;5126167;27;20492;-81
2022/09/26 10:44:35;;;;;;;12.32;6.53;;;11.40;99.90;;;;;;5130438;27;20074;-81
2022/09/26 10:47:08;;;;;;;11.00;6.20;;;11.30;99.90;;;;;;5131060;27;20061;-82
2022/09/26 10:49:44;;;;;;;15.02;6.85;;;11.30;99.90;;;;;;5131227;27;20046;-81
2022/09/26 10:52:36;;;;;;;14.20;6.50;;;11.30;99.90;;;;;;5093840;28;20047;-80
2022/09/26 10:55:07;;;;;;;9.25;6.40;;;11.30;99.90;;;;;;5097069;27;20615;-81
2022/09/26 10:57:39;;;;;;;10.80;5.15;;;11.30;99.90;;;;;;5122119;27;20130;-81
2022/09/26 11:00:07;;;;;;;9.02;5.82;;;11.30;99.90;;;;;;5123649;27;20099;-80
2022/09/26 11:02:34;;;;;;;12.68;6.10;;;11.30;99.90;;;;;;5093671;28;20159;-80
2022/09/26 11:07:51;;;;;;;7.47;6.10;;;11.30;99.90;;;;;;5116991;27;20059;-81
2022/09/26 11:10:24;;;;;;;12.77;7.00;;;11.30;99.90;;;;;;5112486;27;20130;-81
2022/09/26 11:13:18;;;;;;;10.45;6.95;;;11.30;99.90;;;;;;5130140;27;20055;-81
2022/09/26 11:16:03;;;;;;;11.27;6.47;;;11.30;99.90;;;;;;5128574;27;20051;-81
2022/09/26 11:18:44;;;;;;;12.77;8.05;;;11.30;99.90;;;;;;5118773;27;20070;-81
2022/09/26 11:21:35;;;;;;;14.00;7.70;;;11.30;99.90;;;;;;5129951;27;20079;-82
2022/09/26 11:24:19;;;;;;;15.57;8.65;;;11.30;99.90;;;;;;5112955;27;20043;-81
2022/09/26 11:27:17;;;;;;;16.70;8.65;;;11.30;99.90;;;;;;5130206;27;20092;-81
2022/09/26 11:29:51;;;;;;;13.00;8.57;;;11.40;99.90;;;;;;5110387;27;20184;-81
2022/09/26 11:32:32;;;;;;;12.77;9.10;;;11.40;99.90;;;;;;5111259;27;20046;-81
2022/09/26 11:35:03;;;;;;;14.52;8.02;;;11.40;99.90;;;;;;5102715;27;20046;-80
2022/09/26 11:37:50;;;;;;;11.85;9.20;;;11.40;99.90;;;;;;5127182;27;20047;-80
2022/09/26 11:40:33;;;;;;;11.25;8.43;;;11.40;99.90;;;;;;5094504;28;20051;-80
2022/09/26 11:43:26;;;;;;;18.65;10.20;;;11.50;99.90;;;;;;5129770;27;20047;-81
2022/09/26 11:46:19;;;;;;;14.50;9.25;;;11.50;99.90;;;;;;5105693;28;20035;-80
2022/09/26 11:49:09;;;;;;;15.93;9.60;;;11.50;99.90;;;;;;5094105;27;20071;-81
2022/09/26 11:52:06;;;;;;;14.45;9.20;;;11.50;99.90;;;;;;5098299;28;20492;-81
2022/09/26 11:54:47;;;;;;;12.43;9.05;;;11.50;99.90;;;;;;5103922;27;20047;-81
2022/09/26 11:57:50;;;;;;;12.82;9.27;;;11.40;99.90;;;;;;5112725;27;20047;-81
2022/09/26 12:00:29;;;;;;;11.88;8.60;;;11.50;99.90;;;;;;5116202;27;20079;-82
2022/09/26 12:03:18;;;;;;;12.65;9.73;;;11.50;99.90;;;;;;5100741;28;20047;-81
2022/09/26 12:05:44;;;;;;;12.65;9.02;;;11.50;99.90;;;;;;5092506;28;20151;-82
2022/09/26 12:08:50;;;;;;;17.85;10.38;;;11.50;99.90;;;;;;5091545;28;20532;-82
2022/09/26 12:11:32;;;;;;;13.93;10.25;;;11.50;99.90;;;;;;5070606;28;20448;-82
2022/09/26 12:14:35;;;;;;;16.80;10.30;;;11.50;99.90;;;;;;5119221;27;20063;-82
2022/09/26 12:17:13;;;;;;;13.95;9.70;;;11.50;99.90;;;;;;5117782;27;20039;-81
2022/09/26 12:19:45;;;;;;;12.00;7.97;;;11.50;99.90;;;;;;5115459;27;20050;-82
2022/09/26 12:22:57;;;;;;;17.85;10.40;;;11.50;99.90;;;;;;5112267;27;20039;-82
2022/09/26 12:25:41;;;;;;;14.32;10.63;;;11.60;99.90;;;;;;5045905;28;20080;-82
2022/09/26 12:28:19;;;;;;;11.65;9.07;;;11.60;99.90;;;;;;5036987;28;20095;-82
2022/09/26 12:31:04;;;;;;;11.15;7.80;;;11.60;99.90;;;;;;5084283;28;20082;-81
2022/09/26 12:34:01;;;;;;;11.82;9.45;;;11.60;99.90;;;;;;5111710;28;20126;-81
2022/09/26 12:36:46;;;;;;;12.85;9.25;;;11.50;99.90;;;;;;5096858;28;20047;-82
2022/09/26 12:39:30;;;;;;;15.43;9.65;;;11.50;99.90;;;;;;5097965;28;20058;-82
2022/09/26 12:42:02;;;;;;;12.45;8.88;;;11.50;99.90;;;;;;5111452;27;20124;-82
2022/09/26 12:44:43;;;;;;;12.30;9.23;;;11.50;99.90;;;;;;5115636;27;20050;-82
2022/09/26 12:47:29;;;;;;;10.63;8.18;;;11.60;99.90;;;;;;5132342;27;20058;-82
2022/09/26 12:50:03;;;;;;;12.10;9.32;;;11.60;99.90;;;;;;5132979;27;20453;-81
2022/09/26 12:52:56;;;;;;;10.90;7.88;;;11.60;99.90;;;;;;5132235;27;20051;-81
2022/09/26 12:55:36;;;;;;;10.52;7.97;;;11.60;99.90;;;;;;5132079;27;20059;-82
2022/09/26 12:58:10;;;;;;;16.40;8.68;;;11.60;99.90;;;;;;5126692;27;20093;-82
2022/09/26 13:01:03;;;;;;;12.30;8.25;;;11.70;99.90;;;;;;5115595;27;20046;-82
2022/09/26 13:03:41;;;;;;;10.50;7.90;;;11.70;99.90;;;;;;5114879;27;20534;-82
2022/09/26 13:06:35;;;;;;;11.07;7.63;;;11.80;99.90;;;;;;5120667;27;20065;-81
2022/09/26 13:09:22;;;;;;;9.93;7.60;;;11.80;99.90;;;;;;5095344;28;20486;-81
2022/09/26 13:12:15;;;;;;;12.93;7.38;;;11.80;99.90;;;;;;5125642;27;20049;-82
2022/09/26 13:15:14;;;;;;;10.68;6.60;;;11.80;99.90;;;;;;5114784;27;20055;-82
2022/09/26 13:17:46;;;;;;;9.65;7.15;;;11.80;99.90;;;;;;5114824;27;20092;-82
2022/09/26 13:20:15;;;;;;;9.15;7.07;;;11.90;99.90;;;;;;5115782;27;20218;-82
2022/09/26 13:22:51;;;;;;;8.10;6.30;;;11.90;99.90;;;;;;5131504;27;20051;-82
2022/09/26 13:25:34;;;;;;;8.65;6.53;;;11.90;99.90;;;;;;5132679;27;20507;-82
2022/09/26 13:28:08;;;;;;;9.23;6.38;;;12.00;99.90;;;;;;5095134;28;20047;-82
2022/09/26 13:30:46;;;;;;;8.63;5.68;;;12.00;99.90;;;;;;5125858;27;20043;-82